AOD weather

Abou-Deïa Airport
Abou-Deïa, Salamat, Chad

Public forecast

Using degrees Celsius for public forecast. Weather courtesy of forecast.io.

Closest aviation weather report (METAR) to Abou-Deïa Airport

Report is more than 6 hours old.

Closest report is Mongo Airport, 54.9 nm (101.6 km) NW. Retrieved 2016/08/17 09:00 UTC (4 years ago):

FTTM 170900Z 28010KT CAVOK 27/20 Q////

Closest aviation forecast (TAF) to Abou-Deïa Airport

Forecast is more than 12 hours old.

Closest forecast is Bokoro Airport, 141.3 nm (261.7 km) WNW. Retrieved 2015/01/04 06:00 UTC (5 years ago):

TAF FTTK 040535Z 0406/0512 04014KT 1200 DU TEMPO 0410/0415 3000 DU